Map

Track Data

SID SEASON NUMBER BASIN SUBBASIN NAME ISO_TIME NATURE LAT LON WMO_WIND WMO_PRES WMO_AGENCY TRACK_TYPE DIST2LAND LANDFALL IFLAG USA_AGENCY USA_ATCF_ID USA_LAT USA_LON USA_RECORD USA_STATUS USA_WIND USA_PRES USA_SSHS USA_R34_NE USA_R34_SE USA_R34_SW USA_R34_NW USA_R50_NE USA_R50_SE USA_R50_SW USA_R50_NW USA_R64_NE USA_R64_SE USA_R64_SW USA_R64_NW USA_POCI USA_ROCI USA_RMW USA_EYE TOKYO_LAT TOKYO_LON TOKYO_GRADE TOKYO_WIND TOKYO_PRES TOKYO_R50_DIR TOKYO_R50_LONG TOKYO_R50_SHORT TOKYO_R30_DIR TOKYO_R30_LONG TOKYO_R30_SHORT TOKYO_LAND CMA_LAT CMA_LON CMA_CAT CMA_WIND CMA_PRES HKO_LAT HKO_LON HKO_CAT HKO_WIND HKO_PRES NEWDELHI_LAT NEWDELHI_LON NEWDELHI_GRADE NEWDELHI_WIND NEWDELHI_PRES NEWDELHI_CI NEWDELHI_DP NEWDELHI_POCI REUNION_LAT REUNION_LON REUNION_TYPE REUNION_WIND REUNION_PRES REUNION_TNUM REUNION_CI REUNION_RMW REUNION_R34_NE REUNION_R34_SE REUNION_R34_SW REUNION_R34_NW REUNION_R50_NE REUNION_R50_SE REUNION_R50_SW REUNION_R50_NW REUNION_R64_NE REUNION_R64_SE REUNION_R64_SW REUNION_R64_NW BOM_LAT BOM_LON BOM_TYPE BOM_WIND BOM_PRES BOM_TNUM BOM_CI BOM_RMW BOM_R34_NE BOM_R34_SE BOM_R34_SW BOM_R34_NW BOM_R50_NE BOM_R50_SE BOM_R50_SW BOM_R50_NW BOM_R64_NE BOM_R64_SE BOM_R64_SW BOM_R64_NW BOM_ROCI BOM_POCI BOM_EYE BOM_POS_METHOD BOM_PRES_METHOD NADI_LAT NADI_LON NADI_CAT NADI_WIND NADI_PRES WELLINGTON_LAT WELLINGTON_LON WELLINGTON_WIND WELLINGTON_PRES DS824_LAT DS824_LON DS824_STAGE DS824_WIND DS824_PRES TD9636_LAT TD9636_LON TD9636_STAGE TD9636_WIND TD9636_PRES TD9635_LAT TD9635_LON TD9635_WIND TD9635_PRES TD9635_ROCI NEUMANN_LAT NEUMANN_LON NEUMANN_CLASS NEUMANN_WIND NEUMANN_PRES MLC_LAT MLC_LON MLC_CLASS MLC_WIND MLC_PRES USA_GUST BOM_GUST BOM_GUST_PER REUNION_GUST REUNION_GUST_PER USA_SEAHGT USA_SEARAD_NE USA_SEARAD_SE USA_SEARAD_SW USA_SEARAD_NW STORM_SPEED STORM_DIR
1922265N20088 1922 53 NI BB NOT_NAMED 1922-09-22 00:00:00 TS 19.9000 88.0000 main 137 107 _________O____ -1 19.9000 88.0000 TC 30 6 315
1922265N20088 1922 53 NI BB NOT_NAMED 1922-09-22 03:00:00 TS 20.1284 87.7585 main 107 61 _________PO___ -1 20.2427 87.6378 TC 30 19.9000 88.0000 1 8 317
1922265N20088 1922 53 NI BB NOT_NAMED 1922-09-22 06:00:00 TS 20.4609 87.4400 main 47 20 _________OP___ -1 20.6000 87.3000 TC 30 20.2524 87.6499 1 9 320
1922265N20088 1922 53 NI BB NOT_NAMED 1922-09-22 09:00:00 TS 20.8257 87.1439 main 10 10 _________PP___ -1 20.9850 87.0125 TC 30 20.6134 87.3191 1 9 326
1922265N20088 1922 53 NI BB NOT_NAMED 1922-09-22 12:00:00 TS 21.1964 86.9144 main 10 0 _________OP___ -1 21.4000 86.8000 TC 30 20.9927 87.0288 1 9 335
1922265N20088 1922 53 NI BB NOT_NAMED 1922-09-22 15:00:00 TS 21.6325 86.7349 main 0 0 _________PO___ -1 21.8649 86.6699 TC 30 21.4000 86.8000 1 9 343
1922265N20088 1922 53 NI BB NOT_NAMED 1922-09-22 18:00:00 TS 22.0678 86.6238 main 0 0 _________OP___ -1 22.3000 86.6000 TC 30 21.8356 86.6475 1 9 348
1922265N20088 1922 53 NI BB NOT_NAMED 1922-09-22 21:00:00 TS 22.4648 86.5471 main 0 0 _________PP___ -1 22.6675 86.5350 TC 30 22.2621 86.5593 1 7 351
1922265N20088 1922 53 NI BB NOT_NAMED 1922-09-23 00:00:00 TS 22.7663 86.5082 main 0 0 _________OP___ -1 22.9000 86.5000 TC 30 22.6326 86.5164 1 5 355
1922265N20088 1922 53 NI BB NOT_NAMED 1922-09-23 03:00:00 TS 22.9225 86.4962 main 0 0 _________PO___ -1 22.9450 86.4925 TC 30 22.9000 86.5000 1 2 0
1922265N20088 1922 53 NI BB NOT_NAMED 1922-09-23 06:00:00 TS 22.9539 86.4891 main 0 0 _________OP___ -1 22.9000 86.5000 TC 30 23.0078 86.4782 1 0 328
1922265N20088 1922 53 NI BB NOT_NAMED 1922-09-23 09:00:00 TS 22.9562 86.4886 main 0 0 _________PP___ -1 22.9000 86.5000 TC 30 23.0125 86.4772 1 0 0
1922265N20088 1922 53 NI BB NOT_NAMED 1922-09-23 12:00:00 TS 22.9305 86.4938 main 0 0 _________OP___ -1 22.9000 86.5000 TC 30 22.9609 86.4877 1 1 0
1922265N20088 1922 53 NI BB NOT_NAMED 1922-09-23 15:00:00 TS 22.9000 86.5000 main 0 0 _________PO___ -1 22.9000 86.5000 TC 30 22.9000 86.5000 1 0 0
1922265N20088 1922 53 NI BB NOT_NAMED 1922-09-23 18:00:00 TS 22.8898 86.4879 main 0 0 _________OP___ -1 22.9000 86.5000 TC 30 22.8796 86.4757 1 0 0
1922265N20088 1922 53 NI BB NOT_NAMED 1922-09-23 21:00:00 TS 22.8737 86.4701 main 0 0 _________PP___ -1 22.8850 86.4850 TC 30 22.8624 86.4552 1 0 0
1922265N20088 1922 53 NI BB NOT_NAMED 1922-09-24 00:00:00 TS 22.8820 86.4785 main 0 0 _________OP___ -1 22.9000 86.5000 TC 30 22.8640 86.4570 1 1 43
1922265N20088 1922 53 NI BB NOT_NAMED 1922-09-24 03:00:00 TS 22.9387 86.5350 main 0 0 _________PO___ -1 22.9775 86.5700 TC 30 22.9000 86.5000 1 2 43
1922265N20088 1922 53 NI BB NOT_NAMED 1922-09-24 06:00:00 TS 23.0445 86.6473 main 0 0 _________OP___ -1 23.1000 86.7000 TC 30 22.9890 86.5946 1 3 47
1922265N20088 1922 53 NI BB NOT_NAMED 1922-09-24 09:00:00 TS 23.1775 86.8087 main 0 0 _________PP___ -1 23.2425 86.8850 TC 30 23.1125 86.7324 1 4 49
1922265N20088 1922 53 NI BB NOT_NAMED 1922-09-24 12:00:00 TS 23.3273 87.0020 main 0 0 _________OP___ -1 23.4000 87.1000 TC 30 23.2546 86.9040 1 5 50
1922265N20088 1922 53 NI BB NOT_NAMED 1922-09-24 15:00:00 TS 23.4787 87.1963 main 0 0 _________PO___ -1 23.5574 87.2925 TC 30 23.4000 87.1000 1 5 52
1922265N20088 1922 53 NI BB NOT_NAMED 1922-09-24 18:00:00 TS 23.6063 87.3924 main 0 0 _________OP___ -1 23.7000 87.5000 TC 30 23.5361 87.3118 1 5 58
1922265N20088 1922 53 NI BB NOT_NAMED 1922-09-24 21:00:00 TS 23.7217 87.6168 main 0 0 _________PP___ -1 23.8101 87.7399 TC 30 23.6628 87.5348 1 5 62
1922265N20088 1922 53 NI BB NOT_NAMED 1922-09-25 00:00:00 TS 23.8221 87.8436 main 0 0 _________OP___ -1 23.9000 88.0000 TC 30 23.7831 87.7654 1 4 63
1922265N20088 1922 53 NI BB NOT_NAMED 1922-09-25 03:00:00 NR 23.9000 88.0000 main 0 __________O___ -1 TC 23.9000 88.0000 1 3 61

About IBTrACS Database

This database is a web-friendly format of International Best Track Archive for Climate Stewardship (IBTrACS), a global best track data archive curated by NOAA dating back to 1842.

Updated: 2021-12-03